Time;durP1;ratioP1;P1;durP2;ratioP2;P2;SDS_P1;SDS_P2;PMS_P1;PMS_P2;Temp;Humidity;BMP_temperature;BMP_pressure;BME280_temperature;BME280_humidity;BME280_pressure;Samples;Min_cycle;Max_cycle;Signal;HPM_P1;HPM_P2
2022/06/06 00:01:47;;;;;;;2.83;0.50;;;17.00;99.90;;;;;;10298743;28;20054;-86
2022/06/06 00:06:51;;;;;;;2.88;0.55;;;17.00;99.90;;;;;;10297759;28;20501;-86
2022/06/06 00:11:56;;;;;;;1.27;0.47;;;17.00;99.90;;;;;;10295030;28;20386;-86
2022/06/06 00:16:57;;;;;;;5.38;0.50;;;17.00;99.90;;;;;;10286057;28;20456;-87
2022/06/06 00:21:59;;;;;;;1.35;0.65;;;17.00;99.90;;;;;;10266129;28;20053;-87
2022/06/06 00:27:01;;;;;;;1.63;0.32;;;16.90;99.90;;;;;;10271575;28;20481;-86
2022/06/06 00:37:27;;;;;;;1.10;0.50;;;16.90;99.90;;;;;;10303628;28;20057;-86
2022/06/06 00:42:34;;;;;;;3.72;0.60;;;16.80;99.90;;;;;;10267872;28;20037;-87
2022/06/06 00:47:39;;;;;;;1.02;0.50;;;16.70;99.90;;;;;;10284406;28;20046;-86
2022/06/06 00:52:43;;;;;;;2.45;0.80;;;16.70;99.90;;;;;;10302838;28;20137;-87
2022/06/06 00:57:58;;;;;;;1.05;0.52;;;16.60;99.90;;;;;;10298310;28;20472;-87
2022/06/06 01:03:03;;;;;;;2.05;0.93;;;16.50;99.90;;;;;;10292416;28;20061;-87
2022/06/06 01:08:07;;;;;;;1.63;0.55;;;16.50;99.90;;;;;;10285739;28;20027;-87
2022/06/06 01:13:11;;;;;;;0.77;0.57;;;16.50;99.90;;;;;;10300402;28;20091;-86
2022/06/06 01:18:31;;;;;;;1.60;0.63;;;16.50;99.90;;;;;;10299982;28;20110;-87
2022/06/06 01:23:53;;;;;;;1.20;0.60;;;16.50;99.90;;;;;;10249716;28;20061;-85
2022/06/06 01:29:09;;;;;;;0.95;0.60;;;16.50;99.90;;;;;;10280992;28;20038;-86
2022/06/06 01:34:13;;;;;;;1.35;0.75;;;16.50;99.90;;;;;;10287510;28;20816;-86
2022/06/06 01:39:15;;;;;;;2.80;1.35;;;16.50;99.90;;;;;;10282859;28;20042;-86
2022/06/06 01:44:40;;;;;;;3.67;1.58;;;16.40;99.90;;;;;;10298992;28;20041;-86
2022/06/06 01:49:44;;;;;;;2.95;1.30;;;16.40;99.90;;;;;;10281337;28;20049;-86
2022/06/06 01:54:46;;;;;;;1.98;1.10;;;16.30;99.90;;;;;;10273370;28;20051;-87
2022/06/06 01:59:49;;;;;;;3.60;0.90;;;16.20;99.90;;;;;;10300295;28;20126;-86
2022/06/06 02:04:51;;;;;;;2.92;0.98;;;16.10;99.90;;;;;;10279509;28;20046;-86
2022/06/06 02:09:52;;;;;;;2.10;1.20;;;16.00;99.90;;;;;;10290704;28;20062;-87
2022/06/06 02:14:54;;;;;;;2.10;0.70;;;16.00;99.90;;;;;;10285088;28;20056;-86
2022/06/06 02:19:59;;;;;;;2.17;1.13;;;15.90;99.90;;;;;;10274803;28;20362;-86
2022/06/06 02:25:00;;;;;;;2.72;1.27;;;15.80;99.90;;;;;;10272794;28;20035;-86
2022/06/06 02:30:07;;;;;;;4.88;2.13;;;15.80;99.90;;;;;;10250470;28;20046;-86
2022/06/06 02:35:13;;;;;;;3.35;1.88;;;15.70;99.90;;;;;;10267201;28;20065;-87
2022/06/06 02:40:18;;;;;;;3.13;1.83;;;15.70;99.90;;;;;;10266522;28;20058;-87
2022/06/06 02:45:21;;;;;;;3.40;2.17;;;15.70;99.90;;;;;;10263083;28;20132;-86
2022/06/06 02:50:26;;;;;;;3.03;2.03;;;15.60;99.90;;;;;;10262712;28;20043;-87
2022/06/06 02:55:28;;;;;;;6.13;1.88;;;15.60;99.90;;;;;;10259220;28;20050;-87
2022/06/06 03:00:32;;;;;;;8.95;2.08;;;15.60;99.90;;;;;;10265428;28;20043;-86
2022/06/06 03:05:47;;;;;;;4.05;2.45;;;15.60;99.90;;;;;;10257830;28;20449;-86
2022/06/06 03:11:34;;;;;;;4.07;2.00;;;15.60;99.90;;;;;;10271088;28;20126;-86
2022/06/06 03:22:57;;;;;;;6.13;2.25;;;15.60;99.90;;;;;;10224876;28;20079;-87
2022/06/06 03:28:19;;;;;;;3.38;2.30;;;15.60;99.90;;;;;;10263686;28;20082;-87
2022/06/06 03:33:33;;;;;;;4.03;2.22;;;15.60;99.90;;;;;;10292259;28;20509;-87
2022/06/06 03:38:46;;;;;;;6.53;2.63;;;15.50;99.90;;;;;;10272363;28;20046;-87
2022/06/06 03:44:07;;;;;;;5.85;2.65;;;15.50;99.90;;;;;;10288037;28;20055;-87
2022/06/06 03:49:27;;;;;;;7.05;2.78;;;15.40;99.90;;;;;;10298726;28;20066;-87
2022/06/06 03:54:45;;;;;;;4.03;2.63;;;15.40;99.90;;;;;;10269467;28;20042;-87
2022/06/06 03:59:53;;;;;;;5.22;2.90;;;15.30;99.90;;;;;;10303486;28;20133;-88
2022/06/06 04:05:00;;;;;;;7.20;3.03;;;15.30;99.90;;;;;;10282085;28;20081;-88
2022/06/06 04:10:04;;;;;;;3.95;2.70;;;15.40;99.90;;;;;;10290292;28;20057;-87
2022/06/06 04:15:47;;;;;;;6.28;2.38;;;15.50;99.90;;;;;;10290950;28;20042;-87
2022/06/06 04:21:11;;;;;;;6.28;2.85;;;15.60;99.90;;;;;;10297514;28;20053;-87
2022/06/06 04:26:19;;;;;;;6.43;2.65;;;15.80;99.90;;;;;;10267377;28;20046;-87
2022/06/06 04:31:31;;;;;;;5.63;3.17;;;15.90;99.90;;;;;;10278528;28;20052;-87
2022/06/06 04:36:51;;;;;;;7.18;3.40;;;16.10;99.90;;;;;;10282790;28;20069;-87
2022/06/06 04:42:09;;;;;;;5.72;3.22;;;16.20;99.90;;;;;;10265111;28;20494;-87
2022/06/06 04:47:27;;;;;;;6.95;2.97;;;16.40;99.90;;;;;;10281895;28;20560;-87
2022/06/06 04:52:30;;;;;;;8.68;2.80;;;16.50;99.90;;;;;;10280040;28;20054;-87
2022/06/06 04:57:34;;;;;;;12.55;4.40;;;16.60;99.90;;;;;;10266338;28;20116;-87
2022/06/06 05:02:36;;;;;;;5.30;3.35;;;16.80;99.90;;;;;;10266968;28;20054;-88
2022/06/06 05:08:01;;;;;;;6.32;3.15;;;16.90;99.90;;;;;;10268900;28;20065;-88
2022/06/06 05:13:18;;;;;;;4.97;3.20;;;17.10;99.90;;;;;;10286581;28;20412;-87
2022/06/06 05:18:34;;;;;;;8.55;3.40;;;17.20;99.90;;;;;;10294905;28;20054;-87
2022/06/06 05:24:05;;;;;;;6.03;3.45;;;17.30;99.90;;;;;;10270617;28;20053;-88
2022/06/06 05:29:19;;;;;;;5.22;3.08;;;17.50;99.90;;;;;;10278959;28;20516;-88
2022/06/06 05:34:33;;;;;;;7.55;3.22;;;17.50;99.90;;;;;;10295279;28;20790;-87
2022/06/06 05:39:45;;;;;;;4.72;2.72;;;17.50;99.90;;;;;;10287298;28;20053;-87
2022/06/06 05:44:50;;;;;;;5.28;3.40;;;17.70;99.90;;;;;;10292802;28;20504;-88
2022/06/06 05:49:52;;;;;;;8.40;3.40;;;17.90;99.90;;;;;;10275724;28;20061;-87
2022/06/06 05:55:15;;;;;;;5.45;3.70;;;18.00;99.90;;;;;;10284499;28;20045;-88
2022/06/06 06:00:36;;;;;;;5.28;3.17;;;17.90;99.90;;;;;;10289193;28;20051;-88
2022/06/06 06:05:55;;;;;;;4.55;2.85;;;17.90;99.90;;;;;;10291372;28;20061;-88
2022/06/06 06:11:24;;;;;;;8.57;3.80;;;18.00;99.90;;;;;;10287966;28;20053;-88
2022/06/06 06:16:31;;;;;;;6.40;3.45;;;18.10;99.90;;;;;;10277345;28;20066;-88
2022/06/06 06:21:55;;;;;;;6.28;2.80;;;18.20;99.90;;;;;;10283239;28;20489;-88
2022/06/06 06:26:57;;;;;;;7.88;3.58;;;18.30;99.90;;;;;;10266392;28;20057;-88
2022/06/06 06:32:24;;;;;;;6.30;3.15;;;18.40;99.90;;;;;;10294561;28;20074;-88
2022/06/06 06:37:44;;;;;;;5.47;2.88;;;18.40;99.90;;;;;;10288679;28;20058;-88
2022/06/06 06:43:20;;;;;;;5.32;2.95;;;18.70;99.90;;;;;;10305656;28;20054;-88
2022/06/06 06:48:32;;;;;;;3.40;2.15;;;18.70;99.90;;;;;;10277048;28;20106;-88
2022/06/06 06:54:02;;;;;;;3.80;2.10;;;18.70;99.90;;;;;;10285816;28;20068;-88
2022/06/06 06:59:10;;;;;;;3.47;2.00;;;18.80;99.90;;;;;;10307107;28;20148;-88
2022/06/06 07:10:24;;;;;;;5.57;2.13;;;18.80;99.90;;;;;;10301268;28;20057;-88
2022/06/06 07:15:28;;;;;;;3.58;2.00;;;18.80;99.90;;;;;;10261499;28;20046;-87
2022/06/06 07:20:32;;;;;;;4.18;2.25;;;18.80;99.90;;;;;;10282534;28;20500;-87
2022/06/06 07:25:40;;;;;;;6.78;2.33;;;18.90;99.90;;;;;;10294320;28;20074;-87
2022/06/06 07:30:58;;;;;;;3.20;1.75;;;18.90;99.90;;;;;;10269379;28;20038;-87
2022/06/06 07:36:23;;;;;;;4.50;1.73;;;18.90;99.90;;;;;;10293177;28;20419;-91
2022/06/06 07:42:01;;;;;;;3.92;2.15;;;19.00;99.90;;;;;;10277446;28;20042;-87
2022/06/06 07:47:19;;;;;;;7.80;2.13;;;19.20;99.90;;;;;;10248076;28;20536;-88
2022/06/06 07:52:36;;;;;;;4.18;2.20;;;19.00;99.90;;;;;;10288702;28;20043;-88
2022/06/06 07:58:12;;;;;;;5.65;1.60;;;19.20;99.90;;;;;;10293210;28;20058;-88
2022/06/06 08:03:19;;;;;;;3.92;1.98;;;19.40;99.90;;;;;;10270026;28;20551;-88
2022/06/06 08:08:40;;;;;;;5.13;1.73;;;19.40;99.90;;;;;;10286358;28;20532;-88
2022/06/06 08:14:14;;;;;;;3.83;1.95;;;19.50;99.90;;;;;;10297540;28;20101;-88
2022/06/06 08:19:41;;;;;;;2.58;1.60;;;19.30;99.90;;;;;;10303442;28;20144;-88
2022/06/06 08:24:47;;;;;;;4.60;2.10;;;19.40;99.90;;;;;;10273689;28;20046;-88
2022/06/06 08:29:59;;;;;;;4.65;1.75;;;19.60;99.90;;;;;;10266053;28;20054;-88
2022/06/06 08:35:01;;;;;;;2.53;1.35;;;19.80;99.90;;;;;;10264941;28;20049;-88
2022/06/06 08:40:19;;;;;;;4.07;1.38;;;20.20;99.90;;;;;;10251913;28;20463;-88
2022/06/06 08:46:08;;;;;;;2.28;1.17;;;20.20;99.90;;;;;;10252777;28;20054;-88
2022/06/06 08:51:43;;;;;;;1.83;1.17;;;20.20;99.90;;;;;;10256088;28;20046;-88
2022/06/06 08:57:04;;;;;;;2.65;1.38;;;20.50;99.90;;;;;;10256348;28;20058;-88
2022/06/06 09:02:19;;;;;;;1.83;1.10;;;20.50;99.90;;;;;;10261992;28;20051;-88
2022/06/06 09:07:36;;;;;;;2.47;1.33;;;20.50;99.90;;;;;;10255867;28;20106;-88
2022/06/06 09:12:57;;;;;;;;;;;20.40;99.90;;;;;;10250100;28;20053;-88
2022/06/06 09:18:18;;;;;;;2.15;1.30;;;20.60;99.90;;;;;;10256247;28;19927;-88
2022/06/06 09:23:41;;;;;;;4.07;1.77;;;20.70;99.90;;;;;;10262299;28;20057;-88
2022/06/06 09:28:52;;;;;;;3.65;1.45;;;20.30;99.90;;;;;;10280186;28;20051;-88
2022/06/06 09:34:32;;;;;;;3.20;1.88;;;20.30;99.90;;;;;;10299161;28;20039;-88
2022/06/06 09:40:09;;;;;;;3.00;1.73;;;20.40;99.90;;;;;;10297698;28;20078;-88
2022/06/06 09:45:34;;;;;;;2.13;1.50;;;20.40;99.90;;;;;;10294039;28;20062;-88
2022/06/06 09:51:14;;;;;;;2.00;1.20;;;20.50;99.90;;;;;;10290457;28;20050;-88
2022/06/06 10:02:57;;;;;;;3.17;1.10;;;20.80;99.90;;;;;;10316703;28;20057;-87
2022/06/06 10:08:44;;;;;;;1.45;1.02;;;20.70;99.90;;;;;;10233643;28;20070;-87
2022/06/06 10:14:02;;;;;;;1.20;0.80;;;21.00;99.90;;;;;;10302302;28;20054;-88
2022/06/06 10:19:32;;;;;;;1.10;0.70;;;20.90;99.90;;;;;;10310747;28;20060;-88
2022/06/06 10:24:59;;;;;;;1.08;0.60;;;21.00;99.50;;;;;;10305510;28;20054;-88
2022/06/06 10:30:19;;;;;;;;;;;21.20;97.90;;;;;;10285404;28;20485;-88
2022/06/06 10:35:26;;;;;;;0.98;0.40;;;21.30;96.90;;;;;;10272456;28;19926;-88
2022/06/06 10:40:52;;;;;;;0.63;0.40;;;22.00;94.30;;;;;;10299376;28;20042;-87
2022/06/06 10:46:08;;;;;;;2.92;0.22;;;21.90;90.40;;;;;;10308966;28;20050;-87
2022/06/06 10:51:37;;;;;;;0.10;0.10;;;21.90;88.10;;;;;;10298568;28;20069;-88
2022/06/06 10:56:43;;;;;;;2.03;0.20;;;22.30;77.80;;;;;;10278908;28;20085;-85
2022/06/06 11:02:11;;;;;;;1.77;0.32;;;23.00;77.80;;;;;;10298223;28;20051;-85
2022/06/06 11:07:44;;;;;;;0.82;0.30;;;23.30;78.10;;;;;;10293198;28;20043;-84
2022/06/06 11:13:27;;;;;;;1.75;0.40;;;23.20;79.60;;;;;;10282443;28;20042;-84
2022/06/06 11:19:06;;;;;;;0.90;0.40;;;23.00;78.90;;;;;;10291476;28;20113;-85
2022/06/06 11:24:22;;;;;;;0.40;0.30;;;22.90;79.10;;;;;;10300668;28;20051;-85
2022/06/06 11:29:33;;;;;;;1.13;0.40;;;22.70;78.70;;;;;;10300862;28;20046;-84
2022/06/06 11:35:05;;;;;;;1.70;0.40;;;22.50;80.40;;;;;;10288195;28;20496;-84
2022/06/06 11:40:40;;;;;;;1.10;0.30;;;23.00;80.10;;;;;;10297741;28;20047;-84
2022/06/06 11:46:12;;;;;;;0.88;0.20;;;23.20;77.30;;;;;;10268665;28;20115;-85
2022/06/06 11:51:27;;;;;;;1.05;0.50;;;23.00;77.80;;;;;;10283465;28;20104;-84
2022/06/06 11:56:49;;;;;;;0.73;0.40;;;23.00;79.50;;;;;;10303684;28;20105;-84
2022/06/06 12:02:20;;;;;;;1.08;0.38;;;22.60;80.20;;;;;;10270162;28;20130;-85
2022/06/06 12:08:09;;;;;;;0.80;0.30;;;22.70;81.20;;;;;;10302310;28;20050;-84
2022/06/06 12:13:52;;;;;;;1.25;0.30;;;22.80;80.80;;;;;;10275823;28;20110;-85
2022/06/06 12:19:02;;;;;;;3.55;0.50;;;23.00;81.10;;;;;;10295715;28;20043;-82
2022/06/06 12:24:08;;;;;;;0.80;0.40;;;23.60;78.10;;;;;;10283215;28;20138;-85
2022/06/06 12:29:28;;;;;;;0.40;0.40;;;23.40;79.20;;;;;;10287341;28;20553;-85
2022/06/06 12:34:46;;;;;;;1.30;0.30;;;23.70;77.40;;;;;;10280558;28;20057;-85
2022/06/06 12:40:12;;;;;;;1.27;0.50;;;24.30;76.90;;;;;;10286025;28;20049;-85
2022/06/06 12:45:33;;;;;;;0.95;0.28;;;24.30;73.60;;;;;;10278496;28;20078;-85
2022/06/06 12:50:54;;;;;;;0.52;0.30;;;24.30;70.40;;;;;;10303482;28;20053;-89
2022/06/06 12:56:21;;;;;;;1.10;0.30;;;24.40;69.80;;;;;;10288179;28;20053;-89
2022/06/06 13:01:38;;;;;;;1.17;0.50;;;24.80;68.80;;;;;;10309912;28;20393;-88
2022/06/06 13:06:50;;;;;;;1.08;0.30;;;24.80;68.10;;;;;;10300635;28;20064;-87
2022/06/06 13:12:07;;;;;;;1.80;0.20;;;24.80;68.00;;;;;;10305050;28;20049;-86
2022/06/06 13:17:40;;;;;;;0.50;0.20;;;25.10;67.20;;;;;;10301610;28;21331;-88
2022/06/06 13:23:11;;;;;;;0.32;0.30;;;24.40;67.50;;;;;;10288106;28;20130;-88
2022/06/06 13:28:25;;;;;;;2.08;0.30;;;24.50;68.20;;;;;;10280877;28;20049;-89
2022/06/06 13:33:51;;;;;;;1.20;0.30;;;24.10;68.10;;;;;;10287292;28;20042;-87
2022/06/06 13:39:30;;;;;;;2.08;0.50;;;24.10;69.50;;;;;;10286624;28;20460;-87
2022/06/06 13:44:38;;;;;;;6.10;0.45;;;24.20;70.50;;;;;;10272707;28;20054;-87
2022/06/06 13:50:05;;;;;;;1.02;0.43;;;24.00;70.10;;;;;;10272873;28;20047;-87
2022/06/06 13:55:26;;;;;;;0.57;0.20;;;24.00;66.70;;;;;;10285729;28;20053;-86
2022/06/06 14:00:41;;;;;;;0.17;0.15;;;23.80;64.60;;;;;;10275024;28;20049;-86
2022/06/06 14:06:12;;;;;;;0.20;0.20;;;23.60;64.30;;;;;;10295280;28;20042;-86
2022/06/06 14:11:51;;;;;;;0.35;0.10;;;23.60;64.80;;;;;;10281265;28;20022;-88
2022/06/06 14:17:00;;;;;;;0.20;0.20;;;24.20;63.40;;;;;;10307014;28;20051;-87
2022/06/06 14:22:05;;;;;;;0.77;0.20;;;24.40;62.90;;;;;;10296782;28;20055;-87
2022/06/06 14:27:19;;;;;;;0.93;0.20;;;24.40;67.60;;;;;;10295822;28;20064;-87
2022/06/06 14:32:30;;;;;;;0.40;0.20;;;24.60;64.90;;;;;;10310356;28;20053;-87
2022/06/06 14:37:34;;;;;;;2.55;0.20;;;24.30;68.70;;;;;;10287318;28;20061;-85
2022/06/06 14:42:51;;;;;;;0.30;0.20;;;24.00;70.40;;;;;;10303288;28;20078;-86
2022/06/06 14:48:00;;;;;;;0.60;0.20;;;24.00;72.30;;;;;;10267935;28;20049;-85
2022/06/06 14:53:14;;;;;;;0.30;0.22;;;23.80;70.30;;;;;;10292510;28;20059;-87
2022/06/06 14:58:22;;;;;;;1.95;0.20;;;24.20;70.00;;;;;;10303715;28;20078;-87
2022/06/06 15:03:40;;;;;;;0.40;0.20;;;24.20;69.90;;;;;;10315302;28;20062;-87
2022/06/06 15:09:11;;;;;;;0.82;0.38;;;24.50;68.50;;;;;;10273069;28;20042;-86
2022/06/06 15:14:25;;;;;;;0.65;0.30;;;25.20;66.80;;;;;;10291449;28;20055;-89
2022/06/06 15:19:52;;;;;;;0.20;0.20;;;25.00;66.50;;;;;;10278072;28;20042;-87
2022/06/06 15:24:55;;;;;;;1.48;0.30;;;25.30;66.50;;;;;;10267624;28;20053;-87
2022/06/06 15:30:14;;;;;;;1.02;0.20;;;25.20;67.90;;;;;;10264881;28;20038;-87
2022/06/06 15:35:48;;;;;;;0.38;0.20;;;25.20;64.50;;;;;;10300361;28;20527;-88
2022/06/06 15:40:55;;;;;;;0.50;0.20;;;25.60;63.50;;;;;;10294139;28;20398;-89
2022/06/06 15:46:03;;;;;;;0.28;0.20;;;25.90;63.00;;;;;;10300537;28;20061;-87
2022/06/06 15:51:08;;;;;;;0.40;0.15;;;25.50;63.00;;;;;;10301163;28;20042;-89
2022/06/06 15:56:15;;;;;;;0.32;0.20;;;25.60;63.40;;;;;;10312437;28;20046;-90
2022/06/06 16:01:38;;;;;;;2.17;0.20;;;25.30;63.20;;;;;;10289787;28;20447;-88
2022/06/06 16:06:55;;;;;;;0.40;0.20;;;25.00;64.70;;;;;;10306028;28;20401;-89
2022/06/06 16:12:31;;;;;;;1.08;0.20;;;25.50;62.90;;;;;;10296426;28;20054;-88
2022/06/06 16:17:47;;;;;;;0.63;0.20;;;25.50;60.20;;;;;;10315048;28;20381;-91
2022/06/06 16:22:57;;;;;;;0.65;0.10;;;26.00;59.20;;;;;;10306813;28;20058;-89
2022/06/06 16:28:42;;;;;;;0.68;0.20;;;25.40;58.20;;;;;;10283529;28;20078;-89
2022/06/06 16:34:12;;;;;;;0.20;0.10;;;24.90;60.50;;;;;;10218106;28;20054;-91
2022/06/06 16:39:21;;;;;;;0.30;0.17;;;25.30;59.20;;;;;;10280013;28;20043;-91
2022/06/06 16:50:29;;;;;;;1.35;0.20;;;26.00;56.20;;;;;;10292375;28;20054;-90
2022/06/06 16:55:31;;;;;;;1.50;0.10;;;26.30;54.10;;;;;;10274716;28;20283;-88
2022/06/06 17:00:56;;;;;;;2.35;0.10;;;26.50;53.90;;;;;;10269149;28;20069;-87
2022/06/06 17:12:07;;;;;;;2.35;0.10;;;26.10;51.70;;;;;;10290414;28;20134;-91
2022/06/06 17:17:19;;;;;;;1.27;0.08;;;26.10;50.70;;;;;;10257636;28;20053;-89
2022/06/06 17:22:31;;;;;;;0.10;0.03;;;26.30;49.40;;;;;;10291748;28;20494;-89
2022/06/06 17:27:46;;;;;;;0.90;0.10;;;26.10;48.50;;;;;;10301520;28;20053;-90
2022/06/06 17:32:59;;;;;;;2.23;0.10;;;25.90;48.60;;;;;;10293828;28;20075;-90
2022/06/06 17:38:15;;;;;;;0.35;0.20;;;25.80;48.30;;;;;;10285837;28;20400;-89
2022/06/06 17:43:30;;;;;;;;;;;24.60;50.60;;;;;;10269246;28;20134;-89
2022/06/06 17:48:39;;;;;;;1.75;0.20;;;24.20;51.60;;;;;;10307604;28;19922;-88
2022/06/06 17:54:05;;;;;;;3.83;0.10;;;23.50;56.90;;;;;;10278396;28;20052;-88
2022/06/06 17:59:36;;;;;;;0.93;0.10;;;23.00;60.60;;;;;;10267681;28;20488;-88
2022/06/06 18:05:05;;;;;;;1.45;0.15;;;22.80;62.40;;;;;;10288704;28;20049;-88
2022/06/06 18:10:21;;;;;;;0.73;0.10;;;23.00;63.40;;;;;;10310131;28;20050;-90
2022/06/06 18:15:47;;;;;;;1.67;0.10;;;23.50;62.00;;;;;;10282953;28;20064;-89
2022/06/06 18:20:53;;;;;;;0.63;0.10;;;23.20;62.70;;;;;;10293527;28;20321;-88
2022/06/06 18:26:18;;;;;;;1.77;0.10;;;23.00;63.60;;;;;;10289440;28;20491;-88
2022/06/06 18:31:24;;;;;;;0.65;0.10;;;22.80;62.90;;;;;;10290663;28;20043;-89
2022/06/06 18:36:32;;;;;;;0.85;0.10;;;22.40;62.70;;;;;;10278013;28;20066;-87
2022/06/06 18:41:41;;;;;;;0.75;0.10;;;22.20;62.60;;;;;;10295071;28;20042;-87
2022/06/06 18:46:43;;;;;;;1.45;0.10;;;22.00;62.90;;;;;;10289350;28;20054;-87
2022/06/06 18:51:49;;;;;;;0.10;0.00;;;21.90;63.20;;;;;;10291735;28;20054;-87
2022/06/06 18:57:24;;;;;;;1.10;0.10;;;21.90;63.70;;;;;;10284927;28;20050;-87
2022/06/06 19:02:43;;;;;;;4.57;0.10;;;21.80;64.30;;;;;;10262451;28;20058;-86
2022/06/06 19:08:22;;;;;;;0.75;0.20;;;21.60;65.20;;;;;;10282017;28;20050;-88
2022/06/06 19:13:26;;;;;;;1.08;0.22;;;21.50;66.00;;;;;;10296981;28;20057;-87
2022/06/06 19:18:30;;;;;;;0.10;0.00;;;21.30;66.90;;;;;;10287595;28;20038;-87
2022/06/06 19:23:48;;;;;;;2.80;0.10;;;21.20;67.50;;;;;;10280875;28;20058;-87
2022/06/06 19:28:56;;;;;;;0.30;0.30;;;21.10;66.40;;;;;;10277013;28;20066;-88
2022/06/06 19:34:16;;;;;;;2.40;0.35;;;21.00;66.70;;;;;;10311312;28;20133;-88
2022/06/06 19:39:32;;;;;;;5.53;0.20;;;20.90;66.70;;;;;;10304658;28;20057;-88
2022/06/06 19:44:36;;;;;;;;;;;20.80;67.00;;;;;;10291132;28;20135;-90
2022/06/06 19:49:42;;;;;;;2.47;0.10;;;20.70;67.30;;;;;;10284054;28;20020;-90
2022/06/06 19:54:44;;;;;;;;;;;20.50;67.30;;;;;;10290690;28;20163;-87
2022/06/06 19:59:54;;;;;;;0.20;0.10;;;20.40;67.00;;;;;;10300192;28;19931;-85
2022/06/06 20:05:10;;;;;;;1.13;0.40;;;20.20;67.20;;;;;;10283966;28;20046;-85
2022/06/06 20:10:15;;;;;;;1.17;0.10;;;20.10;67.50;;;;;;10304155;28;20050;-85
2022/06/06 20:15:21;;;;;;;2.05;0.40;;;19.90;67.80;;;;;;10297096;28;20046;-84
2022/06/06 20:20:44;;;;;;;1.10;0.10;;;19.80;67.90;;;;;;10279705;28;20046;-83
2022/06/06 20:25:51;;;;;;;1.75;0.20;;;19.70;68.10;;;;;;10285847;28;20065;-84
2022/06/06 20:36:45;;;;;;;2.03;0.10;;;19.40;69.10;;;;;;10295789;28;20046;-84
2022/06/06 20:41:50;;;;;;;0.22;0.10;;;19.30;69.50;;;;;;10284291;28;20057;-84
2022/06/06 20:46:59;;;;;;;0.20;0.10;;;19.10;70.00;;;;;;10297915;28;20039;-83
2022/06/06 20:52:03;;;;;;;2.13;0.10;;;19.00;70.80;;;;;;10285213;28;20058;-83
2022/06/06 20:57:30;;;;;;;0.88;0.20;;;18.90;72.00;;;;;;10300730;28;20110;-84
2022/06/06 21:02:32;;;;;;;0.20;0.10;;;18.90;72.30;;;;;;10292901;28;20050;-84
2022/06/06 21:07:34;;;;;;;0.93;0.10;;;18.70;73.00;;;;;;10304203;28;20057;-83
2022/06/06 21:12:39;;;;;;;2.15;0.10;;;18.60;73.70;;;;;;10304498;28;20512;-84
2022/06/06 21:17:41;;;;;;;1.30;0.20;;;18.50;73.90;;;;;;10304740;28;20076;-83
2022/06/06 21:22:46;;;;;;;1.58;0.20;;;18.50;74.50;;;;;;10303180;28;20055;-83
2022/06/06 21:27:49;;;;;;;0.38;0.10;;;18.40;74.10;;;;;;10292350;28;20149;-83
2022/06/06 21:32:51;;;;;;;0.17;0.10;;;18.30;74.20;;;;;;10282670;28;20050;-83
2022/06/06 21:37:53;;;;;;;0.25;0.10;;;18.30;74.30;;;;;;10282698;28;20121;-83
2022/06/06 21:42:55;;;;;;;0.13;0.10;;;18.20;74.20;;;;;;10297847;28;20047;-83
2022/06/06 21:47:57;;;;;;;1.05;0.10;;;18.20;74.80;;;;;;10286789;28;20046;-85
2022/06/06 21:52:58;;;;;;;1.08;0.20;;;18.10;74.70;;;;;;10303989;28;20054;-85
2022/06/06 21:58:00;;;;;;;1.80;0.00;;;18.00;75.30;;;;;;10299780;28;20061;-85
2022/06/06 22:03:03;;;;;;;0.28;0.10;;;17.80;76.10;;;;;;10299570;28;20058;-85
2022/06/06 22:08:05;;;;;;;0.10;0.10;;;17.70;76.60;;;;;;10300382;28;20053;-85
2022/06/06 22:13:07;;;;;;;0.20;0.10;;;17.60;77.20;;;;;;10300884;28;20092;-85
2022/06/06 22:18:09;;;;;;;0.20;0.10;;;17.60;77.40;;;;;;10275851;28;20074;-85
2022/06/06 22:23:11;;;;;;;0.30;0.10;;;17.60;78.00;;;;;;10292499;28;20061;-85
2022/06/06 22:28:13;;;;;;;2.92;0.10;;;17.50;77.70;;;;;;10275022;28;20050;-87
2022/06/06 22:33:15;;;;;;;0.77;0.10;;;17.50;79.10;;;;;;10298125;28;20055;-86
2022/06/06 22:38:21;;;;;;;0.38;0.20;;;17.40;79.80;;;;;;10283044;28;20519;-86
2022/06/06 22:43:23;;;;;;;1.70;0.20;;;17.40;80.60;;;;;;10306660;28;20046;-86
2022/06/06 22:48:29;;;;;;;0.30;0.10;;;17.30;80.80;;;;;;10290830;28;20042;-86
2022/06/06 22:53:33;;;;;;;0.10;0.10;;;17.30;81.60;;;;;;10282871;28;20081;-87
2022/06/06 22:58:36;;;;;;;1.92;0.20;;;17.30;81.10;;;;;;10291942;28;20066;-86
2022/06/06 23:03:38;;;;;;;0.60;0.20;;;17.20;81.90;;;;;;10302664;28;20540;-86
2022/06/06 23:08:40;;;;;;;2.25;0.20;;;17.10;83.30;;;;;;10283492;28;20031;-85
2022/06/06 23:13:42;;;;;;;0.57;0.10;;;17.00;83.20;;;;;;10303086;28;20273;-85
2022/06/06 23:18:45;;;;;;;1.52;0.20;;;16.90;84.50;;;;;;10289288;28;20077;-85
2022/06/06 23:23:47;;;;;;;2.13;0.45;;;16.80;86.60;;;;;;10296999;28;20050;-85
2022/06/06 23:28:49;;;;;;;1.38;0.30;;;16.60;87.70;;;;;;10302779;28;20053;-85
2022/06/06 23:33:52;;;;;;;1.67;0.20;;;16.60;89.10;;;;;;10302042;28;20050;-85
2022/06/06 23:39:02;;;;;;;1.27;0.38;;;16.40;89.90;;;;;;10306258;28;20092;-86
2022/06/06 23:44:06;;;;;;;3.03;0.70;;;16.30;90.40;;;;;;10293783;28;20072;-86
2022/06/06 23:49:15;;;;;;;1.50;0.40;;;16.10;90.80;;;;;;10305529;28;20047;-86
2022/06/06 23:54:18;;;;;;;2.63;0.40;;;16.00;91.30;;;;;;10301853;28;20114;-86
2022/06/06 23:59:20;;;;;;;1.35;0.30;;;16.00;91.70;;;;;;10279874;28;21153;-85
